createdAt,value
2019-01-19T00:01:40.033Z,19.90
2019-01-19T00:04:26.821Z,19.80
2019-01-19T00:07:08.747Z,19.90
2019-01-19T00:09:55.143Z,20.73
2019-01-19T00:12:28.797Z,22.47
2019-01-19T00:15:03.569Z,20.50
2019-01-19T00:17:39.069Z,20.40
2019-01-19T00:20:25.664Z,19.67
2019-01-19T00:23:19.513Z,22.20
2019-01-19T00:26:06.302Z,21.43
2019-01-19T00:28:37.731Z,19.03
2019-01-19T00:31:08.807Z,20.83
2019-01-19T00:33:56.666Z,21.33
2019-01-19T00:36:33.492Z,22.77
2019-01-19T00:39:27.895Z,22.57
2019-01-19T00:42:11.371Z,17.90
2019-01-19T00:45:08.554Z,20.37
2019-01-19T00:47:43.999Z,19.63
2019-01-19T00:50:26.204Z,19.63
2019-01-19T00:53:01.658Z,18.17
2019-01-19T00:55:58.679Z,20.77
2019-01-19T00:58:52.559Z,21.00
2019-01-19T01:01:40.948Z,22.13
2019-01-19T01:04:34.855Z,21.73
2019-01-19T01:07:22.728Z,20.60
2019-01-19T01:09:59.180Z,20.23
2019-01-19T01:12:37.154Z,17.60
2019-01-19T01:15:23.818Z,18.20
2019-01-19T01:18:01.303Z,19.03
2019-01-19T01:20:37.678Z,19.10
2019-01-19T01:23:31.391Z,18.33
2019-01-19T01:26:31.630Z,21.80
2019-01-19T01:29:05.389Z,17.30
2019-01-19T01:31:37.789Z,19.00
2019-01-19T01:34:24.455Z,17.70
2019-01-19T01:37:12.301Z,18.80
2019-01-19T01:40:18.869Z,19.73
2019-01-19T01:43:11.021Z,17.87
2019-01-19T01:46:02.008Z,18.37
2019-01-19T01:48:52.769Z,18.48
2019-01-19T01:51:33.720Z,17.97
2019-01-19T01:54:27.430Z,16.40
2019-01-19T01:56:57.402Z,17.47
2019-01-19T01:59:48.020Z,15.67
2019-01-19T02:02:28.519Z,19.30
2019-01-19T02:05:40.246Z,17.77
2019-01-19T02:08:26.967Z,16.43
2019-01-19T02:11:11.623Z,18.63
2019-01-19T02:14:11.509Z,18.23
2019-01-19T02:16:47.185Z,17.83
2019-01-19T02:19:53.699Z,14.63
2019-01-19T02:22:29.332Z,17.10
2019-01-19T02:25:04.418Z,18.23
2019-01-19T02:28:04.758Z,18.15
2019-01-19T02:31:04.958Z,15.50
2019-01-19T02:34:11.758Z,18.97
2019-01-19T02:37:11.672Z,16.70
2019-01-19T02:39:46.669Z,15.47
2019-01-19T02:42:34.552Z,16.67
2019-01-19T02:45:08.827Z,15.30
2019-01-19T02:47:55.618Z,17.53
2019-01-19T02:50:39.137Z,14.00
2019-01-19T02:53:17.613Z,15.97
2019-01-19T02:55:53.830Z,17.37
2019-01-19T02:58:41.731Z,16.53
2019-01-19T03:01:35.881Z,15.97
2019-01-19T03:04:26.725Z,16.90
2019-01-19T03:07:06.497Z,17.93
2019-01-19T03:09:54.350Z,17.00
2019-01-19T03:12:37.394Z,17.20
2019-01-19T03:15:21.932Z,15.60
2019-01-19T03:18:13.208Z,15.93
2019-01-19T03:21:01.051Z,17.23
2019-01-19T03:23:48.012Z,18.90
2019-01-19T03:26:41.921Z,16.17
2019-01-19T03:29:23.321Z,17.57
2019-01-19T03:32:14.020Z,15.83
2019-01-19T03:34:49.971Z,14.97
2019-01-19T03:37:32.758Z,14.53
2019-01-19T03:40:26.547Z,19.43
2019-01-19T03:43:01.880Z,17.57
2019-01-19T03:45:36.189Z,16.47
2019-01-19T03:48:27.165Z,16.70
2019-01-19T03:51:08.958Z,19.03
2019-01-19T03:54:03.192Z,19.50
2019-01-19T03:56:36.457Z,18.43
2019-01-19T03:59:24.298Z,18.10
2019-01-19T04:02:12.146Z,14.40
2019-01-19T04:04:43.444Z,16.40
2019-01-19T04:07:24.187Z,18.47
2019-01-19T04:10:13.466Z,19.07
2019-01-19T04:13:04.123Z,16.00
2019-01-19T04:15:39.385Z,17.30
2019-01-19T04:18:20.239Z,18.10
2019-01-19T04:20:57.360Z,18.37
2019-01-19T04:23:26.115Z,18.03
2019-01-19T04:26:11.893Z,17.17
2019-01-19T04:28:40.726Z,16.03
2019-01-19T04:31:09.457Z,17.00
2019-01-19T04:33:38.197Z,17.80
2019-01-19T04:36:07.712Z,18.83
2019-01-19T04:38:38.315Z,19.13
2019-01-19T04:43:41.734Z,17.10
2019-01-19T04:46:10.419Z,18.53
2019-01-19T04:48:39.782Z,22.07
2019-01-19T04:51:08.490Z,18.37
2019-01-19T04:53:37.237Z,22.20
2019-01-19T04:56:05.970Z,19.50
2019-01-19T04:58:34.752Z,18.60
2019-01-19T05:01:03.443Z,20.27
2019-01-19T05:03:32.155Z,16.67
2019-01-19T05:06:00.871Z,19.13
2019-01-19T05:08:29.624Z,20.40
2019-01-19T05:10:58.396Z,19.37
2019-01-19T05:13:27.115Z,18.37
2019-01-19T05:15:55.868Z,20.30
2019-01-19T05:18:24.731Z,20.03
2019-01-19T05:20:53.747Z,21.33
2019-01-19T05:23:22.735Z,20.27
2019-01-19T05:25:51.441Z,19.10
2019-01-19T05:28:20.175Z,21.30
2019-01-19T05:30:48.916Z,21.37
2019-01-19T05:33:17.738Z,20.35
2019-01-19T05:35:46.476Z,21.23
2019-01-19T05:38:15.185Z,18.83
2019-01-19T05:40:43.886Z,20.97
2019-01-19T05:43:12.611Z,16.97
2019-01-19T05:45:41.306Z,17.37
2019-01-19T05:48:09.986Z,18.67
2019-01-19T05:50:38.704Z,20.10
2019-01-19T05:53:07.394Z,22.10
2019-01-19T05:55:36.143Z,18.73
2019-01-19T05:58:04.825Z,16.77
2019-01-19T06:00:34.866Z,18.43
2019-01-19T06:03:03.566Z,17.50
2019-01-19T06:05:32.269Z,20.97
2019-01-19T06:08:01.056Z,18.63
2019-01-19T06:10:29.733Z,17.10
2019-01-19T06:12:58.442Z,18.17
2019-01-19T06:15:27.162Z,18.73
2019-01-19T06:17:55.948Z,15.90
2019-01-19T06:20:24.689Z,16.97
2019-01-19T06:22:53.594Z,16.53
2019-01-19T06:25:22.315Z,20.20
2019-01-19T06:27:51.026Z,17.43
2019-01-19T06:30:20.665Z,16.73
2019-01-19T06:32:49.410Z,15.03
2019-01-19T06:35:18.252Z,14.43
2019-01-19T06:37:47.062Z,16.83
2019-01-19T06:40:16.024Z,14.57
2019-01-19T06:42:44.737Z,16.10
2019-01-19T06:45:14.522Z,14.33
2019-01-19T06:47:43.254Z,15.77
2019-01-19T06:50:13.142Z,14.27
2019-01-19T06:52:41.847Z,17.57
2019-01-19T06:55:11.193Z,17.33
2019-01-19T06:57:39.914Z,15.97
2019-01-19T07:00:09.839Z,17.10
2019-01-19T07:02:38.578Z,14.17
2019-01-19T07:05:07.290Z,14.47
2019-01-19T07:07:36.345Z,15.70
2019-01-19T07:10:05.528Z,17.40
2019-01-19T07:12:34.241Z,19.03
2019-01-19T07:15:02.998Z,15.10
2019-01-19T07:17:31.695Z,15.60
2019-01-19T07:20:00.402Z,13.00
2019-01-19T07:22:29.122Z,14.97
2019-01-19T07:24:57.842Z,16.03
2019-01-19T07:27:26.581Z,13.63
2019-01-19T07:29:55.602Z,17.00
2019-01-19T07:32:24.398Z,14.17
2019-01-19T07:34:53.132Z,12.83
2019-01-19T07:37:21.872Z,14.13
2019-01-19T07:39:50.639Z,15.43
2019-01-19T07:42:19.339Z,14.00
2019-01-19T07:44:48.057Z,14.87
2019-01-19T07:47:17.103Z,14.10
2019-01-19T07:49:45.812Z,13.23
2019-01-19T07:52:14.564Z,14.37
2019-01-19T07:54:43.307Z,13.40
2019-01-19T07:57:12.022Z,16.63
2019-01-19T07:59:40.714Z,18.47
2019-01-19T08:02:09.460Z,16.03
2019-01-19T08:04:38.166Z,15.87
2019-01-19T08:07:06.890Z,15.07
2019-01-19T08:09:35.785Z,15.47
2019-01-19T08:12:04.500Z,17.10
2019-01-19T08:14:33.247Z,15.33
2019-01-19T08:17:02.006Z,12.50
2019-01-19T08:19:31.064Z,16.20
2019-01-19T08:22:01.721Z,14.10
2019-01-19T08:24:30.496Z,17.67
2019-01-19T08:27:19.838Z,14.07
2019-01-19T08:29:48.645Z,13.20
2019-01-19T08:32:17.429Z,14.83
2019-01-19T08:34:46.630Z,15.77
2019-01-19T08:37:15.548Z,14.73
2019-01-19T08:39:45.943Z,13.58
2019-01-19T08:42:14.750Z,15.07
2019-01-19T08:44:43.480Z,11.20
2019-01-19T08:47:12.491Z,13.70
2019-01-19T08:50:19.996Z,11.90
2019-01-19T08:52:14.463Z,12.43
2019-01-19T08:54:43.252Z,12.07
2019-01-19T08:57:12.068Z,12.85
2019-01-19T08:59:41.152Z,13.47
2019-01-19T09:02:10.201Z,13.20
2019-01-19T09:04:39.000Z,13.30
2019-01-19T09:07:07.993Z,10.97
2019-01-19T09:09:36.770Z,12.43
2019-01-19T09:12:05.619Z,12.23
2019-01-19T09:14:34.484Z,11.47
2019-01-19T09:17:03.263Z,10.93
2019-01-19T09:19:33.575Z,10.93
2019-01-19T09:22:02.402Z,12.97
2019-01-19T09:24:31.412Z,11.50
2019-01-19T09:27:00.193Z,9.07
2019-01-19T09:29:29.039Z,10.43
2019-01-19T09:31:57.881Z,11.53
2019-01-19T09:34:28.044Z,12.23
2019-01-19T09:36:57.094Z,9.97
2019-01-19T09:39:26.129Z,9.70
2019-01-19T09:41:54.980Z,7.97
2019-01-19T09:44:24.113Z,11.47
2019-01-19T09:46:54.283Z,11.83
2019-01-19T09:49:23.198Z,11.17
2019-01-19T09:51:52.263Z,11.30
2019-01-19T09:54:20.991Z,8.87
2019-01-19T09:56:51.579Z,12.03
2019-01-19T09:59:20.508Z,9.87
2019-01-19T10:01:49.371Z,12.07
2019-01-19T10:04:18.086Z,9.17
2019-01-19T10:06:48.227Z,10.77
2019-01-19T10:09:17.133Z,11.67
2019-01-19T10:11:45.935Z,11.07
2019-01-19T10:14:14.714Z,11.27
2019-01-19T10:16:43.437Z,11.73
2019-01-19T10:19:12.198Z,11.50
2019-01-19T10:21:40.946Z,10.10
2019-01-19T10:24:09.708Z,10.17
2019-01-19T10:26:38.503Z,11.70
2019-01-19T10:29:07.431Z,9.30
2019-01-19T10:31:36.181Z,10.13
2019-01-19T10:34:05.035Z,9.37
2019-01-19T10:36:33.884Z,10.23
2019-01-19T10:39:02.778Z,11.10
2019-01-19T10:41:31.543Z,10.53
2019-01-19T10:44:00.349Z,10.63
2019-01-19T10:46:29.293Z,10.30
2019-01-19T10:48:58.155Z,12.63
2019-01-19T10:51:26.934Z,10.50
2019-01-19T10:53:55.709Z,10.13
2019-01-19T10:56:24.541Z,9.20
2019-01-19T10:58:53.779Z,10.43
2019-01-19T11:01:22.558Z,8.57
2019-01-19T11:03:51.303Z,8.87
2019-01-19T11:06:20.073Z,9.70
2019-01-19T11:08:48.872Z,10.27
2019-01-19T11:11:17.679Z,9.23
2019-01-19T11:13:46.450Z,10.78
2019-01-19T11:16:15.613Z,9.37
2019-01-19T11:18:44.777Z,8.20
2019-01-19T11:21:13.600Z,7.47
2019-01-19T11:23:42.390Z,7.60
2019-01-19T11:26:12.853Z,6.97
2019-01-19T11:28:41.808Z,7.67
2019-01-19T11:31:12.141Z,7.23
2019-01-19T11:33:40.990Z,7.67
2019-01-19T11:36:10.476Z,8.97
2019-01-19T11:38:39.231Z,6.10
2019-01-19T11:41:08.013Z,11.10
2019-01-19T11:43:36.867Z,6.33
2019-01-19T11:46:05.958Z,8.20
2019-01-19T11:48:34.825Z,6.60
2019-01-19T11:51:04.197Z,6.63
2019-01-19T11:53:33.080Z,6.83
2019-01-19T11:56:01.821Z,8.63
2019-01-19T11:58:30.657Z,6.43
2019-01-19T12:00:59.394Z,5.77
2019-01-19T12:03:28.519Z,5.80
2019-01-19T12:05:57.388Z,5.80
2019-01-19T12:08:26.182Z,6.07
2019-01-19T12:10:54.961Z,6.57
2019-01-19T12:13:23.845Z,6.50
2019-01-19T12:15:52.638Z,6.03
2019-01-19T12:18:21.474Z,6.50
2019-01-19T12:20:51.095Z,5.87
2019-01-19T12:23:19.850Z,6.73
2019-01-19T12:25:48.733Z,6.60
2019-01-19T12:28:17.550Z,6.10
2019-01-19T12:30:46.358Z,6.13
2019-01-19T12:33:15.135Z,5.87
2019-01-19T12:35:43.876Z,6.65
2019-01-19T12:38:13.582Z,8.93
2019-01-19T12:40:42.310Z,5.73
2019-01-19T12:43:12.540Z,5.37
2019-01-19T12:45:42.529Z,7.77
2019-01-19T12:48:11.939Z,5.33
2019-01-19T12:50:40.918Z,7.03
2019-01-19T12:53:09.744Z,6.40
2019-01-19T12:55:38.837Z,5.73
2019-01-19T12:58:08.262Z,4.80
2019-01-19T13:00:36.991Z,5.17
2019-01-19T13:03:05.842Z,5.63
2019-01-19T13:05:36.304Z,5.50
2019-01-19T13:08:05.344Z,6.77
2019-01-19T13:10:45.242Z,4.67
2019-01-19T13:13:15.409Z,4.67
2019-01-19T13:16:15.705Z,6.57
2019-01-19T13:18:47.401Z,6.33
2019-01-19T13:21:30.367Z,5.17
2019-01-19T13:24:18.229Z,5.13
2019-01-19T13:27:04.659Z,5.37
2019-01-19T13:29:52.469Z,6.30
2019-01-19T13:32:31.518Z,7.20
2019-01-19T13:35:12.488Z,7.97
2019-01-19T13:38:01.369Z,5.17
2019-01-19T13:40:52.423Z,6.87
2019-01-19T13:43:41.540Z,5.20
2019-01-19T13:46:45.225Z,7.23
2019-01-19T13:49:31.734Z,5.93
2019-01-19T13:52:25.629Z,4.37
2019-01-19T13:55:12.560Z,4.53
2019-01-19T13:57:59.397Z,5.13
2019-01-19T14:00:35.993Z,7.10
2019-01-19T14:03:32.895Z,4.87
2019-01-19T14:06:08.086Z,4.97
2019-01-19T14:08:55.961Z,4.63
2019-01-19T14:11:55.978Z,5.00
2019-01-19T14:14:49.582Z,3.90
2019-01-19T14:17:26.312Z,4.27
2019-01-19T14:19:57.992Z,5.83
2019-01-19T14:22:51.945Z,4.60
2019-01-19T14:25:29.606Z,3.33
2019-01-19T14:28:17.476Z,4.87
2019-01-19T14:31:11.506Z,5.33
2019-01-19T14:33:59.368Z,4.00
2019-01-19T14:36:59.596Z,4.00
2019-01-19T14:39:53.324Z,3.75
2019-01-19T14:42:47.253Z,6.40
2019-01-19T14:45:38.037Z,3.37
2019-01-19T14:48:10.402Z,4.80
2019-01-19T14:51:01.089Z,4.13
2019-01-19T14:54:04.121Z,4.97
2019-01-19T14:56:39.669Z,3.87
2019-01-19T14:59:33.514Z,3.43
2019-01-19T15:02:20.117Z,4.10
2019-01-19T15:05:10.965Z,3.93
2019-01-19T15:07:57.534Z,4.43
2019-01-19T15:10:40.591Z,3.17
2019-01-19T15:13:37.499Z,4.30
2019-01-19T15:16:31.486Z,4.03
2019-01-19T15:19:18.081Z,3.20
2019-01-19T15:22:14.992Z,5.43
2019-01-19T15:24:47.631Z,4.80
2019-01-19T15:27:51.018Z,3.90
2019-01-19T15:30:24.373Z,5.03
2019-01-19T15:33:15.082Z,5.33
2019-01-19T15:36:02.925Z,5.50
2019-01-19T15:38:48.151Z,4.13
2019-01-19T15:41:35.010Z,5.13
2019-01-19T15:44:24.907Z,4.53
2019-01-19T15:47:01.663Z,4.30
2019-01-19T15:49:48.401Z,5.13
2019-01-19T15:52:35.258Z,5.30
2019-01-19T15:55:29.491Z,6.03
2019-01-19T15:58:16.100Z,4.27
2019-01-19T16:00:55.101Z,5.03
2019-01-19T16:03:55.126Z,4.10
2019-01-19T16:06:44.069Z,5.40
2019-01-19T16:09:40.789Z,4.17
2019-01-19T16:12:16.429Z,4.47
2019-01-19T16:15:22.670Z,5.33
2019-01-19T16:18:16.435Z,5.23
2019-01-19T16:21:07.158Z,5.50
2019-01-19T16:23:40.394Z,7.63
2019-01-19T16:26:15.906Z,8.63
2019-01-19T16:28:53.830Z,7.17
2019-01-19T16:31:40.259Z,5.00
2019-01-19T16:34:19.487Z,5.47
2019-01-19T16:36:56.927Z,5.37
2019-01-19T16:39:43.626Z,5.80
2019-01-19T16:42:40.682Z,7.90
2019-01-19T16:45:18.391Z,6.57
2019-01-19T16:48:09.660Z,7.93
2019-01-19T16:50:45.993Z,6.90
2019-01-19T16:53:39.919Z,5.83
2019-01-19T16:56:26.762Z,6.53
2019-01-19T16:59:14.778Z,8.07
2019-01-19T17:02:12.085Z,4.70
2019-01-19T17:04:59.951Z,5.77
2019-01-19T17:07:47.805Z,5.10
2019-01-19T17:10:41.972Z,7.00
2019-01-19T17:13:35.441Z,4.20
2019-01-19T17:16:15.699Z,5.73
2019-01-19T17:19:21.760Z,4.30
2019-01-19T17:22:18.529Z,7.83
2019-01-19T17:25:09.483Z,6.37
2019-01-19T17:27:47.190Z,5.03
2019-01-19T17:30:31.430Z,6.37
2019-01-19T17:33:07.809Z,5.00
2019-01-19T17:35:44.228Z,5.93
2019-01-19T17:38:22.673Z,5.00
2019-01-19T17:41:22.672Z,4.60
2019-01-19T17:44:09.144Z,6.23
2019-01-19T17:47:06.173Z,7.83
2019-01-19T17:49:55.876Z,9.57
2019-01-19T17:52:42.452Z,10.83
2019-01-19T17:55:23.929Z,8.47
2019-01-19T17:58:07.122Z,9.93
2019-01-19T18:00:58.548Z,10.60
2019-01-19T18:03:36.920Z,15.20
2019-01-19T18:06:31.002Z,12.40
2019-01-19T18:09:18.951Z,10.17
2019-01-19T18:12:05.691Z,11.37
2019-01-19T18:14:53.547Z,10.03
2019-01-19T18:17:29.660Z,10.10
2019-01-19T18:20:29.783Z,7.80
2019-01-19T18:23:24.131Z,6.47
2019-01-19T18:26:15.259Z,6.40
2019-01-19T18:29:12.440Z,8.23
2019-01-19T18:32:12.725Z,5.33
2019-01-19T18:37:58.964Z,8.53
2019-01-19T18:40:56.032Z,6.53
2019-01-19T18:43:47.549Z,10.37
2019-01-19T18:46:26.883Z,7.40
2019-01-19T18:49:12.053Z,5.17
2019-01-19T18:51:51.152Z,6.73
2019-01-19T18:54:39.092Z,6.53
2019-01-19T18:57:23.324Z,6.10
2019-01-19T19:00:20.338Z,5.97
2019-01-19T19:03:08.239Z,5.97
2019-01-19T19:05:55.833Z,7.63
2019-01-19T19:08:49.898Z,7.43
2019-01-19T19:11:40.605Z,7.03
2019-01-19T19:14:15.586Z,8.07
2019-01-19T19:16:55.887Z,7.27
2019-01-19T19:19:49.660Z,7.37
2019-01-19T19:22:37.549Z,8.87
2019-01-19T19:25:24.126Z,8.47
2019-01-19T19:28:11.038Z,7.37
2019-01-19T19:31:06.324Z,7.67
2019-01-19T19:33:49.461Z,8.87
2019-01-19T19:36:55.733Z,8.63
2019-01-19T19:39:36.903Z,8.10
2019-01-19T19:42:13.860Z,8.50
2019-01-19T19:45:04.978Z,9.23
2019-01-19T19:47:52.709Z,8.10
2019-01-19T19:50:40.627Z,11.73
2019-01-19T19:53:09.507Z,12.27
2019-01-19T19:55:37.742Z,7.93
2019-01-19T19:58:06.516Z,9.83
2019-01-19T20:00:35.272Z,7.80
2019-01-19T20:03:04.146Z,9.83
2019-01-19T20:05:32.881Z,6.83
2019-01-19T20:08:01.867Z,8.40
2019-01-19T20:10:30.599Z,7.83
2019-01-19T20:13:00.772Z,10.93
2019-01-19T20:15:29.596Z,9.33
2019-01-19T20:17:58.408Z,8.67
2019-01-19T20:20:27.205Z,7.53
2019-01-19T20:22:56.070Z,9.93
2019-01-19T20:25:24.978Z,10.23
2019-01-19T20:27:53.734Z,10.33
2019-01-19T20:30:22.580Z,10.73
2019-01-19T20:32:51.477Z,10.33
2019-01-19T20:35:20.290Z,9.30
2019-01-19T20:37:49.116Z,9.60
2019-01-19T20:40:24.124Z,15.53
2019-01-19T20:42:48.903Z,11.17
2019-01-19T20:45:17.805Z,10.87
2019-01-19T20:47:46.599Z,11.67
2019-01-19T20:50:15.348Z,10.03
2019-01-19T20:52:44.159Z,12.00
2019-01-19T20:55:12.943Z,13.53
2019-01-19T20:57:41.896Z,11.80
2019-01-19T21:00:12.431Z,11.73
2019-01-19T21:02:41.189Z,14.47
2019-01-19T21:05:10.011Z,12.37
2019-01-19T21:07:38.743Z,10.63
2019-01-19T21:10:07.632Z,10.27
2019-01-19T21:12:36.433Z,13.00
2019-01-19T21:15:05.877Z,9.37
2019-01-19T21:17:34.702Z,10.43
2019-01-19T21:20:04.346Z,9.50
2019-01-19T21:22:33.375Z,10.17
2019-01-19T21:25:02.322Z,8.83
2019-01-19T21:27:31.149Z,10.47
2019-01-19T21:30:00.027Z,8.97
2019-01-19T21:32:28.925Z,10.17
2019-01-19T21:34:57.690Z,11.97
2019-01-19T21:37:26.514Z,9.73
2019-01-19T21:39:55.323Z,10.17
2019-01-19T21:42:24.142Z,10.27
2019-01-19T21:44:52.995Z,11.57
2019-01-19T21:47:21.734Z,10.10
2019-01-19T21:49:50.455Z,12.40
2019-01-19T21:52:19.218Z,11.07
2019-01-19T21:54:48.061Z,12.93
2019-01-19T21:57:16.773Z,12.07
2019-01-19T21:59:45.551Z,12.80
2019-01-19T22:02:14.338Z,12.83
2019-01-19T22:04:43.098Z,12.20
2019-01-19T22:07:11.919Z,13.00
2019-01-19T22:09:40.688Z,14.17
2019-01-19T22:12:09.717Z,14.40
2019-01-19T22:14:38.822Z,10.87
2019-01-19T22:17:07.643Z,13.17
2019-01-19T22:19:36.354Z,15.33
2019-01-19T22:22:05.161Z,13.13
2019-01-19T22:24:33.902Z,12.27
2019-01-19T22:27:03.924Z,12.93
2019-01-19T22:29:32.743Z,13.43
2019-01-19T22:32:01.944Z,14.00
2019-01-19T22:34:30.647Z,14.60
2019-01-19T22:37:00.459Z,10.83
2019-01-19T22:39:29.228Z,14.77
2019-01-19T22:41:58.038Z,14.03
2019-01-19T22:44:26.793Z,11.80
2019-01-19T22:46:55.649Z,13.40
2019-01-19T22:49:24.410Z,13.80
2019-01-19T22:51:53.155Z,14.00
2019-01-19T22:54:21.964Z,13.93
2019-01-19T22:56:50.758Z,14.00
2019-01-19T22:59:19.591Z,13.87
2019-01-19T23:01:49.714Z,16.43
2019-01-19T23:04:18.458Z,11.17
2019-01-19T23:06:53.321Z,13.27
2019-01-19T23:09:22.114Z,13.20
2019-01-19T23:11:50.911Z,16.70
2019-01-19T23:14:19.689Z,21.47
2019-01-19T23:16:48.467Z,19.37
2019-01-19T23:19:17.278Z,19.73
2019-01-19T23:21:45.994Z,15.30
2019-01-19T23:24:14.737Z,14.67
2019-01-19T23:26:43.518Z,14.57
2019-01-19T23:29:12.243Z,14.17
2019-01-19T23:31:40.987Z,18.93
2019-01-19T23:34:09.780Z,14.67
2019-01-19T23:36:44.118Z,13.17
2019-01-19T23:39:13.127Z,16.87
2019-01-19T23:41:41.918Z,15.83
2019-01-19T23:44:10.665Z,18.67
2019-01-19T23:46:39.514Z,14.77
2019-01-19T23:49:08.279Z,13.50
2019-01-19T23:51:36.990Z,14.27
2019-01-19T23:54:05.770Z,14.47
2019-01-19T23:56:34.554Z,14.97
2019-01-19T23:59:03.306Z,14.40
